sensor_id;sensor_type;location;lat;lon;timestamp;temperature;humidity
22224;DHT22;11281;52.194;21.006;2023-02-14T00:01:08;4.60;99.90
22224;DHT22;11281;52.194;21.006;2023-02-14T00:05:31;4.60;99.90
22224;DHT22;11281;52.194;21.006;2023-02-14T00:09:52;4.70;99.90
22224;DHT22;11281;52.194;21.006;2023-02-14T00:14:15;4.60;99.90
22224;DHT22;11281;52.194;21.006;2023-02-14T00:18:56;4.60;99.90
22224;DHT22;11281;52.194;21.006;2023-02-14T00:23:24;4.50;99.90
22224;DHT22;11281;52.194;21.006;2023-02-14T00:27:45;4.50;99.90
22224;DHT22;11281;52.194;21.006;2023-02-14T00:32:07;4.50;99.90
22224;DHT22;11281;52.194;21.006;2023-02-14T00:36:29;4.40;99.90
22224;DHT22;11281;52.194;21.006;2023-02-14T00:40:51;4.50;99.90
22224;DHT22;11281;52.194;21.006;2023-02-14T00:45:14;4.40;99.90
22224;DHT22;11281;52.194;21.006;2023-02-14T00:49:39;4.40;99.90
22224;DHT22;11281;52.194;21.006;2023-02-14T00:54:00;4.40;99.90
22224;DHT22;11281;52.194;21.006;2023-02-14T00:58:23;4.40;99.90
22224;DHT22;11281;52.194;21.006;2023-02-14T01:02:45;4.40;99.90
22224;DHT22;11281;52.194;21.006;2023-02-14T01:07:07;4.40;99.90
22224;DHT22;11281;52.194;21.006;2023-02-14T01:11:28;4.30;99.90
22224;DHT22;11281;52.194;21.006;2023-02-14T01:15:51;4.30;99.90
22224;DHT22;11281;52.194;21.006;2023-02-14T01:20:12;4.30;99.90
22224;DHT22;11281;52.194;21.006;2023-02-14T01:24:35;4.30;99.90
22224;DHT22;11281;52.194;21.006;2023-02-14T01:28:57;4.20;99.90
22224;DHT22;11281;52.194;21.006;2023-02-14T01:33:18;4.20;99.90
22224;DHT22;11281;52.194;21.006;2023-02-14T01:37:40;4.20;99.90
22224;DHT22;11281;52.194;21.006;2023-02-14T01:42:02;4.20;99.90
22224;DHT22;11281;52.194;21.006;2023-02-14T01:46:25;4.20;99.90
22224;DHT22;11281;52.194;21.006;2023-02-14T01:50:52;4.10;99.90
22224;DHT22;11281;52.194;21.006;2023-02-14T01:55:19;4.10;99.90
22224;DHT22;11281;52.194;21.006;2023-02-14T01:59:52;4.10;99.90
22224;DHT22;11281;52.194;21.006;2023-02-14T02:04:21;4.10;99.90
22224;DHT22;11281;52.194;21.006;2023-02-14T02:09:14;4.10;99.90
22224;DHT22;11281;52.194;21.006;2023-02-14T02:13:38;4.10;99.90
22224;DHT22;11281;52.194;21.006;2023-02-14T02:18:21;4.00;99.90
22224;DHT22;11281;52.194;21.006;2023-02-14T02:41:45;3.90;99.90
22224;DHT22;11281;52.194;21.006;2023-02-14T02:51:04;3.90;99.90
22224;DHT22;11281;52.194;21.006;2023-02-14T03:00:40;3.80;99.90
22224;DHT22;11281;52.194;21.006;2023-02-14T03:05:03;3.80;99.90
22224;DHT22;11281;52.194;21.006;2023-02-14T03:14:28;3.70;99.90
22224;DHT22;11281;52.194;21.006;2023-02-14T03:24:13;3.60;99.90
22224;DHT22;11281;52.194;21.006;2023-02-14T03:33:57;3.70;99.90
22224;DHT22;11281;52.194;21.006;2023-02-14T03:38:30;3.60;99.90
22224;DHT22;11281;52.194;21.006;2023-02-14T03:43:20;3.60;99.90
22224;DHT22;11281;52.194;21.006;2023-02-14T03:47:47;3.60;99.90
22224;DHT22;11281;52.194;21.006;2023-02-14T03:52:12;3.60;99.90
22224;DHT22;11281;52.194;21.006;2023-02-14T03:56:37;3.60;99.90
22224;DHT22;11281;52.194;21.006;2023-02-14T04:01:07;3.50;99.90
22224;DHT22;11281;52.194;21.006;2023-02-14T04:05:33;3.50;99.90
22224;DHT22;11281;52.194;21.006;2023-02-14T04:09:54;3.50;99.90
22224;DHT22;11281;52.194;21.006;2023-02-14T04:14:16;3.50;99.90
22224;DHT22;11281;52.194;21.006;2023-02-14T04:18:38;3.50;99.90
22224;DHT22;11281;52.194;21.006;2023-02-14T04:23:18;3.50;99.90
22224;DHT22;11281;52.194;21.006;2023-02-14T04:27:40;3.40;99.90
22224;DHT22;11281;52.194;21.006;2023-02-14T04:32:02;3.50;99.90
22224;DHT22;11281;52.194;21.006;2023-02-14T04:36:25;3.50;99.90
22224;DHT22;11281;52.194;21.006;2023-02-14T04:40:51;3.50;99.90
22224;DHT22;11281;52.194;21.006;2023-02-14T04:45:13;3.50;99.90
22224;DHT22;11281;52.194;21.006;2023-02-14T04:49:35;3.50;99.90
22224;DHT22;11281;52.194;21.006;2023-02-14T04:53:56;3.50;99.90
22224;DHT22;11281;52.194;21.006;2023-02-14T04:58:18;3.50;99.90
22224;DHT22;11281;52.194;21.006;2023-02-14T05:02:40;3.50;99.90
22224;DHT22;11281;52.194;21.006;2023-02-14T05:07:02;3.50;99.90
22224;DHT22;11281;52.194;21.006;2023-02-14T05:11:23;3.50;99.90
22224;DHT22;11281;52.194;21.006;2023-02-14T05:15:45;3.50;99.90
22224;DHT22;11281;52.194;21.006;2023-02-14T05:20:08;3.50;99.90
22224;DHT22;11281;52.194;21.006;2023-02-14T05:24:30;3.50;99.90
22224;DHT22;11281;52.194;21.006;2023-02-14T05:28:52;3.40;99.90
22224;DHT22;11281;52.194;21.006;2023-02-14T05:33:13;3.50;99.90
22224;DHT22;11281;52.194;21.006;2023-02-14T05:37:35;3.40;99.90
22224;DHT22;11281;52.194;21.006;2023-02-14T05:41:57;3.40;99.90
22224;DHT22;11281;52.194;21.006;2023-02-14T05:46:18;3.40;99.90
22224;DHT22;11281;52.194;21.006;2023-02-14T05:50:40;3.40;99.90
22224;DHT22;11281;52.194;21.006;2023-02-14T05:55:03;3.40;99.90
22224;DHT22;11281;52.194;21.006;2023-02-14T05:59:25;3.40;99.90
22224;DHT22;11281;52.194;21.006;2023-02-14T06:03:47;3.40;99.90
22224;DHT22;11281;52.194;21.006;2023-02-14T06:08:08;3.40;99.90
22224;DHT22;11281;52.194;21.006;2023-02-14T06:12:30;3.40;99.90
22224;DHT22;11281;52.194;21.006;2023-02-14T06:16:52;3.40;99.90
22224;DHT22;11281;52.194;21.006;2023-02-14T06:21:13;3.40;99.90
22224;DHT22;11281;52.194;21.006;2023-02-14T06:25:35;3.40;99.90
22224;DHT22;11281;52.194;21.006;2023-02-14T06:29:57;3.40;99.90
22224;DHT22;11281;52.194;21.006;2023-02-14T06:34:19;3.40;99.90
22224;DHT22;11281;52.194;21.006;2023-02-14T06:38:41;3.40;99.90
22224;DHT22;11281;52.194;21.006;2023-02-14T06:43:02;3.40;99.90
22224;DHT22;11281;52.194;21.006;2023-02-14T06:47:24;3.40;99.90
22224;DHT22;11281;52.194;21.006;2023-02-14T06:51:46;3.40;99.90
22224;DHT22;11281;52.194;21.006;2023-02-14T06:56:08;3.40;99.90
22224;DHT22;11281;52.194;21.006;2023-02-14T07:00:29;3.40;99.90
22224;DHT22;11281;52.194;21.006;2023-02-14T07:04:51;3.50;99.90
22224;DHT22;11281;52.194;21.006;2023-02-14T07:09:13;3.50;99.90
22224;DHT22;11281;52.194;21.006;2023-02-14T07:13:38;3.60;99.90
22224;DHT22;11281;52.194;21.006;2023-02-14T07:18:00;3.50;99.90
22224;DHT22;11281;52.194;21.006;2023-02-14T07:22:21;3.50;99.90
22224;DHT22;11281;52.194;21.006;2023-02-14T07:26:43;3.60;99.90
22224;DHT22;11281;52.194;21.006;2023-02-14T07:31:05;3.70;99.90
22224;DHT22;11281;52.194;21.006;2023-02-14T07:35:27;3.60;99.90
22224;DHT22;11281;52.194;21.006;2023-02-14T07:39:48;3.70;99.90
22224;DHT22;11281;52.194;21.006;2023-02-14T07:44:10;3.70;99.90
22224;DHT22;11281;52.194;21.006;2023-02-14T07:48:32;3.90;99.90
22224;DHT22;11281;52.194;21.006;2023-02-14T07:52:54;3.70;99.90
22224;DHT22;11281;52.194;21.006;2023-02-14T07:57:16;3.80;99.90
22224;DHT22;11281;52.194;21.006;2023-02-14T08:01:38;3.80;99.90
22224;DHT22;11281;52.194;21.006;2023-02-14T12:18:50;6.40;99.90
22224;DHT22;11281;52.194;21.006;2023-02-14T12:23:34;6.40;99.90
22224;DHT22;11281;52.194;21.006;2023-02-14T12:28:05;6.70;99.90
22224;DHT22;11281;52.194;21.006;2023-02-14T12:32:31;6.70;99.90
22224;DHT22;11281;52.194;21.006;2023-02-14T13:05:59;6.20;99.90
22224;DHT22;11281;52.194;21.006;2023-02-14T13:10:40;6.30;99.90
22224;DHT22;11281;52.194;21.006;2023-02-14T13:20:41;6.50;99.90
22224;DHT22;11281;52.194;21.006;2023-02-14T13:25:29;6.60;99.90
22224;DHT22;11281;52.194;21.006;2023-02-14T13:30:10;6.60;99.90
22224;DHT22;11281;52.194;21.006;2023-02-14T13:34:42;6.70;99.90
22224;DHT22;11281;52.194;21.006;2023-02-14T13:39:08;6.60;99.90
22224;DHT22;11281;52.194;21.006;2023-02-14T13:48:14;6.70;99.90
22224;DHT22;11281;52.194;21.006;2023-02-14T13:52:44;6.60;99.90
22224;DHT22;11281;52.194;21.006;2023-02-14T13:57:30;6.50;99.90
22224;DHT22;11281;52.194;21.006;2023-02-14T14:20:48;6.50;99.90
22224;DHT22;11281;52.194;21.006;2023-02-14T14:25:09;6.40;99.90
22224;DHT22;11281;52.194;21.006;2023-02-14T14:29:36;6.20;99.90
22224;DHT22;11281;52.194;21.006;2023-02-14T14:34:00;6.10;99.90
22224;DHT22;11281;52.194;21.006;2023-02-14T14:38:22;5.90;99.90
22224;DHT22;11281;52.194;21.006;2023-02-14T14:42:44;5.80;99.90
22224;DHT22;11281;52.194;21.006;2023-02-14T14:47:13;5.80;99.90
22224;DHT22;11281;52.194;21.006;2023-02-14T14:51:39;5.70;99.90
22224;DHT22;11281;52.194;21.006;2023-02-14T14:56:00;5.70;99.90
22224;DHT22;11281;52.194;21.006;2023-02-14T15:00:28;5.60;99.90
22224;DHT22;11281;52.194;21.006;2023-02-14T15:04:51;5.60;99.90
22224;DHT22;11281;52.194;21.006;2023-02-14T15:09:31;5.50;99.90
22224;DHT22;11281;52.194;21.006;2023-02-14T15:13:54;5.40;99.90
22224;DHT22;11281;52.194;21.006;2023-02-14T15:18:19;5.40;99.90
22224;DHT22;11281;52.194;21.006;2023-02-14T15:22:45;5.30;99.90
22224;DHT22;11281;52.194;21.006;2023-02-14T15:27:14;5.20;99.90
22224;DHT22;11281;52.194;21.006;2023-02-14T15:31:38;5.00;99.90
22224;DHT22;11281;52.194;21.006;2023-02-14T15:36:07;4.90;99.90
22224;DHT22;11281;52.194;21.006;2023-02-14T15:40:36;4.80;99.90
22224;DHT22;11281;52.194;21.006;2023-02-14T15:49:48;4.60;99.90
22224;DHT22;11281;52.194;21.006;2023-02-14T15:54:45;4.40;99.90
22224;DHT22;11281;52.194;21.006;2023-02-14T15:59:22;4.20;99.90
22224;DHT22;11281;52.194;21.006;2023-02-14T16:03:50;3.90;99.90
22224;DHT22;11281;52.194;21.006;2023-02-14T16:12:56;3.60;99.90
22224;DHT22;11281;52.194;21.006;2023-02-14T16:17:31;3.50;99.90
22224;DHT22;11281;52.194;21.006;2023-02-14T16:21:55;3.40;99.90
22224;DHT22;11281;52.194;21.006;2023-02-14T16:26:17;3.20;99.90
22224;DHT22;11281;52.194;21.006;2023-02-14T16:30:40;3.30;99.90
22224;DHT22;11281;52.194;21.006;2023-02-14T16:35:02;3.30;99.90
22224;DHT22;11281;52.194;21.006;2023-02-14T16:39:24;3.20;99.90
22224;DHT22;11281;52.194;21.006;2023-02-14T16:43:47;2.90;99.90
22224;DHT22;11281;52.194;21.006;2023-02-14T16:48:09;2.70;99.90
22224;DHT22;11281;52.194;21.006;2023-02-14T16:52:31;2.50;99.90
22224;DHT22;11281;52.194;21.006;2023-02-14T16:57:00;2.30;99.90
22224;DHT22;11281;52.194;21.006;2023-02-14T17:01:23;2.30;99.90
22224;DHT22;11281;52.194;21.006;2023-02-14T17:05:45;2.20;99.90
22224;DHT22;11281;52.194;21.006;2023-02-14T17:10:10;2.20;99.90
22224;DHT22;11281;52.194;21.006;2023-02-14T17:14:37;2.00;99.90
22224;DHT22;11281;52.194;21.006;2023-02-14T17:19:02;1.90;99.90
22224;DHT22;11281;52.194;21.006;2023-02-14T17:23:23;1.70;99.90
22224;DHT22;11281;52.194;21.006;2023-02-14T17:27:45;1.60;99.90
22224;DHT22;11281;52.194;21.006;2023-02-14T17:32:10;1.40;99.90
22224;DHT22;11281;52.194;21.006;2023-02-14T17:36:33;1.30;99.90
22224;DHT22;11281;52.194;21.006;2023-02-14T17:40:54;1.20;99.90
22224;DHT22;11281;52.194;21.006;2023-02-14T17:45:16;1.20;99.90
22224;DHT22;11281;52.194;21.006;2023-02-14T17:49:38;1.10;99.90
22224;DHT22;11281;52.194;21.006;2023-02-14T17:53:59;1.00;99.90
22224;DHT22;11281;52.194;21.006;2023-02-14T17:58:21;1.00;99.90
22224;DHT22;11281;52.194;21.006;2023-02-14T18:02:43;0.90;99.90
22224;DHT22;11281;52.194;21.006;2023-02-14T18:07:05;0.90;99.90
22224;DHT22;11281;52.194;21.006;2023-02-14T18:11:27;0.90;99.90
22224;DHT22;11281;52.194;21.006;2023-02-14T18:15:50;0.90;99.90
22224;DHT22;11281;52.194;21.006;2023-02-14T18:20:13;0.80;99.90
22224;DHT22;11281;52.194;21.006;2023-02-14T18:24:35;1.00;99.90
22224;DHT22;11281;52.194;21.006;2023-02-14T18:28:57;1.00;99.90
22224;DHT22;11281;52.194;21.006;2023-02-14T18:33:19;1.20;99.90
22224;DHT22;11281;52.194;21.006;2023-02-14T18:37:41;1.50;99.90
22224;DHT22;11281;52.194;21.006;2023-02-14T18:42:03;1.50;99.90
22224;DHT22;11281;52.194;21.006;2023-02-14T18:46:27;1.50;99.90
22224;DHT22;11281;52.194;21.006;2023-02-14T18:50:51;1.50;99.90
22224;DHT22;11281;52.194;21.006;2023-02-14T18:55:12;1.40;99.90
22224;DHT22;11281;52.194;21.006;2023-02-14T18:59:34;1.30;99.90
22224;DHT22;11281;52.194;21.006;2023-02-14T19:03:58;1.40;99.90
22224;DHT22;11281;52.194;21.006;2023-02-14T19:08:20;1.30;99.90
22224;DHT22;11281;52.194;21.006;2023-02-14T19:12:42;1.40;99.90
22224;DHT22;11281;52.194;21.006;2023-02-14T19:17:04;1.30;99.90
22224;DHT22;11281;52.194;21.006;2023-02-14T19:21:28;1.30;99.90
22224;DHT22;11281;52.194;21.006;2023-02-14T19:25:51;1.30;99.90
22224;DHT22;11281;52.194;21.006;2023-02-14T19:30:13;1.20;99.90
22224;DHT22;11281;52.194;21.006;2023-02-14T19:34:36;1.30;99.90
22224;DHT22;11281;52.194;21.006;2023-02-14T19:38:58;1.30;99.90
22224;DHT22;11281;52.194;21.006;2023-02-14T19:43:20;1.20;99.90
22224;DHT22;11281;52.194;21.006;2023-02-14T19:47:42;1.20;99.90
22224;DHT22;11281;52.194;21.006;2023-02-14T19:52:03;1.10;99.90
22224;DHT22;11281;52.194;21.006;2023-02-14T19:56:28;1.30;99.90
22224;DHT22;11281;52.194;21.006;2023-02-14T20:00:59;1.20;99.90
22224;DHT22;11281;52.194;21.006;2023-02-14T20:05:20;1.20;99.90
22224;DHT22;11281;52.194;21.006;2023-02-14T20:09:43;1.10;99.90
22224;DHT22;11281;52.194;21.006;2023-02-14T20:14:06;1.10;99.90
22224;DHT22;11281;52.194;21.006;2023-02-14T20:18:28;1.20;99.90
22224;DHT22;11281;52.194;21.006;2023-02-14T20:22:49;1.20;99.90
22224;DHT22;11281;52.194;21.006;2023-02-14T20:27:11;1.20;99.90
22224;DHT22;11281;52.194;21.006;2023-02-14T20:31:33;1.10;99.90
22224;DHT22;11281;52.194;21.006;2023-02-14T20:35:55;1.20;99.90
22224;DHT22;11281;52.194;21.006;2023-02-14T20:40:17;1.10;99.90
22224;DHT22;11281;52.194;21.006;2023-02-14T20:44:39;1.10;99.90
22224;DHT22;11281;52.194;21.006;2023-02-14T20:49:02;1.00;99.90
22224;DHT22;11281;52.194;21.006;2023-02-14T20:53:24;0.90;99.90
22224;DHT22;11281;52.194;21.006;2023-02-14T20:57:46;0.80;99.90
22224;DHT22;11281;52.194;21.006;2023-02-14T21:02:08;0.80;99.90
22224;DHT22;11281;52.194;21.006;2023-02-14T21:06:32;0.90;99.90
22224;DHT22;11281;52.194;21.006;2023-02-14T21:10:55;0.80;99.90
22224;DHT22;11281;52.194;21.006;2023-02-14T21:15:17;0.70;99.90
22224;DHT22;11281;52.194;21.006;2023-02-14T21:19:39;0.80;99.90
22224;DHT22;11281;52.194;21.006;2023-02-14T21:24:03;0.70;99.90
22224;DHT22;11281;52.194;21.006;2023-02-14T21:28:27;0.60;99.90
22224;DHT22;11281;52.194;21.006;2023-02-14T21:32:49;0.50;99.90
22224;DHT22;11281;52.194;21.006;2023-02-14T21:37:10;0.50;99.90
22224;DHT22;11281;52.194;21.006;2023-02-14T21:41:33;0.50;99.90
22224;DHT22;11281;52.194;21.006;2023-02-14T21:45:55;0.70;99.90
22224;DHT22;11281;52.194;21.006;2023-02-14T21:50:18;0.60;99.90
22224;DHT22;11281;52.194;21.006;2023-02-14T21:54:51;0.50;99.90
22224;DHT22;11281;52.194;21.006;2023-02-14T21:59:13;0.50;99.90
22224;DHT22;11281;52.194;21.006;2023-02-14T22:03:34;0.40;99.90
22224;DHT22;11281;52.194;21.006;2023-02-14T22:07:58;0.50;99.90
22224;DHT22;11281;52.194;21.006;2023-02-14T22:12:20;0.20;99.90
22224;DHT22;11281;52.194;21.006;2023-02-14T22:16:41;0.30;99.90
22224;DHT22;11281;52.194;21.006;2023-02-14T22:21:09;0.20;99.90
22224;DHT22;11281;52.194;21.006;2023-02-14T22:25:35;0.30;99.90
22224;DHT22;11281;52.194;21.006;2023-02-14T22:29:57;0.30;99.90
22224;DHT22;11281;52.194;21.006;2023-02-14T22:34:18;0.20;99.90
22224;DHT22;11281;52.194;21.006;2023-02-14T22:38:41;0.40;99.90
22224;DHT22;11281;52.194;21.006;2023-02-14T22:43:03;0.60;99.90
22224;DHT22;11281;52.194;21.006;2023-02-14T22:47:25;0.80;99.90
22224;DHT22;11281;52.194;21.006;2023-02-14T22:51:49;0.90;99.90
22224;DHT22;11281;52.194;21.006;2023-02-14T22:56:20;1.10;99.90
22224;DHT22;11281;52.194;21.006;2023-02-14T23:00:43;1.20;99.90
22224;DHT22;11281;52.194;21.006;2023-02-14T23:05:05;1.30;99.90
22224;DHT22;11281;52.194;21.006;2023-02-14T23:09:27;1.40;99.90
22224;DHT22;11281;52.194;21.006;2023-02-14T23:13:49;1.40;99.90
22224;DHT22;11281;52.194;21.006;2023-02-14T23:18:29;1.40;99.90
22224;DHT22;11281;52.194;21.006;2023-02-14T23:23:09;1.40;99.90
22224;DHT22;11281;52.194;21.006;2023-02-14T23:31:59;1.40;99.90
22224;DHT22;11281;52.194;21.006;2023-02-14T23:36:21;1.50;99.90
22224;DHT22;11281;52.194;21.006;2023-02-14T23:40:43;1.60;99.90
22224;DHT22;11281;52.194;21.006;2023-02-14T23:45:23;1.60;99.90
22224;DHT22;11281;52.194;21.006;2023-02-14T23:49:56;1.70;99.90
22224;DHT22;11281;52.194;21.006;2023-02-14T23:54:19;1.80;99.90
22224;DHT22;11281;52.194;21.006;2023-02-14T23:58:42;1.90;99.90
